Time;durP1;ratioP1;P1;durP2;ratioP2;P2;SDS_P1;SDS_P2;PMS_P1;PMS_P2;Temp;Humidity;BMP_temperature;BMP_pressure;BME280_temperature;BME280_humidity;BME280_pressure;Samples;Min_cycle;Max_cycle;Signal;HPM_P1;HPM_P2
2022/03/26 00:33:37;;;;;;;9.90;9.60;;;6.50;99.90;;;;;;6193777;22;2215625;-84
2022/03/26 00:36:05;;;;;;;9.80;9.50;;;6.50;99.90;;;;;;6298484;22;20220;-83
2022/03/26 00:38:36;;;;;;;9.80;9.50;;;6.60;99.90;;;;;;6299652;22;20201;-83
2022/03/26 00:41:04;;;;;;;9.90;9.60;;;6.60;99.90;;;;;;6298015;22;20201;-83
2022/03/26 00:43:32;;;;;;;9.97;9.67;;;6.60;99.90;;;;;;6293408;22;20201;-84
2022/03/26 00:46:00;;;;;;;10.00;9.70;;;6.60;99.90;;;;;;6308932;22;20208;-83
2022/03/26 00:48:28;;;;;;;9.70;9.40;;;6.50;99.90;;;;;;6317750;22;20196;-82
2022/03/26 00:50:57;;;;;;;9.80;9.50;;;6.50;99.90;;;;;;6295329;22;20196;-83
2022/03/26 00:53:26;;;;;;;9.70;9.40;;;6.50;99.90;;;;;;6293673;22;20205;-84
2022/03/26 00:55:54;;;;;;;9.80;9.50;;;6.40;99.90;;;;;;6293428;22;20209;-83
2022/03/26 00:58:22;;;;;;;9.60;9.30;;;6.40;99.90;;;;;;6293139;22;20752;-83
2022/03/26 01:00:49;;;;;;;9.90;9.60;;;6.30;99.90;;;;;;6292984;22;20246;-83
2022/03/26 01:03:18;;;;;;;10.00;9.70;;;6.20;99.90;;;;;;6294426;22;20204;-84
2022/03/26 01:05:46;;;;;;;10.07;9.77;;;6.00;99.90;;;;;;6294048;22;20197;-83
2022/03/26 01:08:15;;;;;;;9.90;9.60;;;6.00;99.90;;;;;;6287789;22;20213;-84
2022/03/26 01:10:44;;;;;;;10.03;9.73;;;5.90;99.90;;;;;;6290159;22;20201;-84
2022/03/26 01:13:12;;;;;;;9.80;9.50;;;5.80;99.90;;;;;;6293705;22;20202;-84
2022/03/26 01:15:40;;;;;;;10.00;9.70;;;5.80;99.90;;;;;;6293359;22;20201;-84
2022/03/26 01:18:07;;;;;;;9.90;9.60;;;5.60;99.90;;;;;;6291884;22;20208;-83
2022/03/26 01:20:35;;;;;;;10.00;9.70;;;5.60;99.90;;;;;;6292188;22;20190;-84
2022/03/26 01:23:04;;;;;;;10.07;9.77;;;5.60;99.90;;;;;;6291297;22;20325;-84
2022/03/26 01:25:33;;;;;;;9.87;9.57;;;5.50;99.90;;;;;;6291705;22;20216;-83
2022/03/26 01:28:01;;;;;;;9.93;9.63;;;5.50;99.90;;;;;;6291591;22;20204;-84
2022/03/26 01:30:29;;;;;;;9.60;9.30;;;5.40;99.90;;;;;;6291273;22;20197;-83
2022/03/26 01:32:56;;;;;;;9.60;9.30;;;5.30;99.90;;;;;;6290618;22;20201;-84
2022/03/26 01:35:24;;;;;;;9.50;9.20;;;5.40;99.90;;;;;;6290073;22;20276;-83
2022/03/26 01:37:52;;;;;;;9.70;9.40;;;5.40;99.90;;;;;;6290482;22;20193;-83
2022/03/26 01:40:20;;;;;;;9.47;9.17;;;5.40;99.90;;;;;;6293780;22;20243;-84
2022/03/26 01:42:49;;;;;;;9.67;9.37;;;5.40;99.90;;;;;;6291937;22;20196;-84
2022/03/26 01:45:17;;;;;;;9.20;8.90;;;5.40;99.90;;;;;;6294083;22;20225;-84
2022/03/26 01:47:45;;;;;;;9.43;9.13;;;5.30;99.90;;;;;;6293025;22;20193;-84
2022/03/26 01:50:13;;;;;;;9.60;9.30;;;5.20;99.90;;;;;;6291820;22;20237;-83
2022/03/26 01:52:41;;;;;;;9.60;9.30;;;5.20;99.90;;;;;;6307124;22;20232;-83
2022/03/26 01:55:09;;;;;;;9.70;9.40;;;5.30;99.90;;;;;;6299316;22;20266;-83
2022/03/26 01:57:37;;;;;;;9.60;9.30;;;5.30;99.90;;;;;;6289559;22;20225;-83
2022/03/26 02:00:11;;;;;;;9.70;9.40;;;5.30;99.90;;;;;;6289578;22;20276;-84
2022/03/26 02:02:43;;;;;;;9.57;9.27;;;5.30;99.90;;;;;;6287889;22;20201;-83
2022/03/26 02:05:12;;;;;;;9.67;9.37;;;5.20;99.90;;;;;;6289292;22;20197;-83
2022/03/26 02:07:40;;;;;;;9.40;9.10;;;5.20;99.90;;;;;;6289435;22;20216;-84
2022/03/26 02:10:10;;;;;;;9.40;9.10;;;5.10;99.90;;;;;;6288462;22;20202;-83
2022/03/26 02:12:38;;;;;;;9.50;9.20;;;5.00;99.90;;;;;;6289123;22;20248;-83
2022/03/26 02:15:09;;;;;;;9.50;9.20;;;4.90;99.90;;;;;;6288985;22;20186;-84
2022/03/26 02:17:38;;;;;;;9.50;9.20;;;4.70;99.90;;;;;;6289118;22;20221;-83
2022/03/26 02:20:10;;;;;;;9.47;9.17;;;4.60;99.90;;;;;;6292988;22;20216;-84
2022/03/26 02:22:40;;;;;;;9.60;9.30;;;4.50;99.90;;;;;;6290195;22;20198;-84
2022/03/26 02:25:10;;;;;;;9.20;8.90;;;4.40;99.90;;;;;;6289558;22;20202;-84
2022/03/26 02:27:38;;;;;;;9.23;8.93;;;4.30;99.90;;;;;;6290529;22;20209;-83
2022/03/26 02:30:07;;;;;;;9.00;8.80;;;4.20;99.90;;;;;;6290834;22;20539;-83
2022/03/26 02:32:35;;;;;;;8.90;8.70;;;4.20;99.90;;;;;;6293664;22;20224;-83
2022/03/26 02:35:03;;;;;;;9.00;8.80;;;4.10;99.90;;;;;;6296054;22;20667;-84
2022/03/26 02:37:33;;;;;;;9.10;8.90;;;4.10;99.90;;;;;;6293321;22;20213;-83
2022/03/26 02:40:04;;;;;;;8.83;8.63;;;4.00;99.90;;;;;;6291727;22;20193;-84
2022/03/26 02:42:32;;;;;;;9.20;8.90;;;4.00;99.90;;;;;;6291289;22;20208;-82
2022/03/26 02:45:00;;;;;;;8.90;8.70;;;4.00;99.90;;;;;;6291801;22;20196;-84
2022/03/26 02:47:27;;;;;;;8.90;8.70;;;4.00;99.90;;;;;;6290651;22;20194;-84
2022/03/26 02:49:56;;;;;;;9.27;8.97;;;4.00;99.90;;;;;;6290582;22;20190;-84
2022/03/26 02:52:24;;;;;;;9.23;8.93;;;4.00;99.90;;;;;;6289809;22;20198;-83
2022/03/26 02:54:54;;;;;;;9.20;8.90;;;4.00;99.90;;;;;;6290206;22;20198;-83
2022/03/26 02:57:21;;;;;;;9.27;8.97;;;4.00;99.90;;;;;;6289869;22;20204;-84
2022/03/26 02:59:49;;;;;;;9.23;8.93;;;4.00;99.90;;;;;;6290367;22;20244;-83
2022/03/26 03:02:17;;;;;;;9.37;9.07;;;3.90;99.90;;;;;;6290418;22;20209;-82
2022/03/26 03:04:45;;;;;;;9.40;9.10;;;3.90;99.90;;;;;;6290185;22;20197;-81
2022/03/26 03:07:13;;;;;;;8.93;8.73;;;3.90;99.90;;;;;;6290832;22;20189;-84
2022/03/26 03:09:40;;;;;;;9.40;9.10;;;3.90;99.90;;;;;;6291495;22;20225;-82
2022/03/26 03:12:11;;;;;;;9.30;9.00;;;3.90;99.90;;;;;;6290488;22;20212;-82
2022/03/26 03:14:39;;;;;;;9.30;9.00;;;3.90;99.90;;;;;;6290884;22;20186;-84
2022/03/26 03:17:07;;;;;;;9.20;8.90;;;3.90;99.90;;;;;;6290721;22;20205;-82
2022/03/26 03:19:36;;;;;;;9.20;8.90;;;3.90;99.90;;;;;;6290375;22;20360;-82
2022/03/26 03:22:05;;;;;;;9.27;8.97;;;3.90;99.90;;;;;;6290438;22;20288;-81
2022/03/26 03:25:01;;;;;;;9.17;8.90;;;3.90;99.90;;;;;;6290077;22;20204;-82
2022/03/26 03:27:30;;;;;;;9.13;8.83;;;3.80;99.90;;;;;;6290681;22;20198;-82
2022/03/26 03:29:58;;;;;;;9.27;8.97;;;3.80;99.90;;;;;;6290112;22;20655;-82
2022/03/26 03:32:26;;;;;;;9.30;9.00;;;3.70;99.90;;;;;;6290103;22;20205;-81
2022/03/26 03:34:55;;;;;;;9.23;8.93;;;3.70;99.90;;;;;;6290408;22;20215;-82
2022/03/26 03:37:23;;;;;;;9.20;8.90;;;3.70;99.90;;;;;;6290475;22;20209;-82
2022/03/26 03:39:51;;;;;;;8.73;8.53;;;3.70;99.90;;;;;;6290199;22;20265;-82
2022/03/26 03:42:19;;;;;;;8.70;8.50;;;3.70;99.90;;;;;;6289240;22;20208;-82
2022/03/26 03:44:48;;;;;;;9.50;9.20;;;3.60;99.90;;;;;;6290584;22;20194;-82
2022/03/26 03:47:16;;;;;;;9.80;9.50;;;3.60;99.90;;;;;;6290468;22;20189;-82
2022/03/26 03:49:44;;;;;;;9.83;9.53;;;3.50;99.90;;;;;;6289876;22;20197;-81
2022/03/26 03:52:11;;;;;;;9.63;9.33;;;3.40;99.90;;;;;;6290365;22;20233;-82
2022/03/26 03:54:39;;;;;;;9.30;9.00;;;3.30;99.90;;;;;;6290372;22;20181;-84
2022/03/26 03:57:07;;;;;;;9.40;9.10;;;3.20;99.90;;;;;;6290203;22;20555;-83
2022/03/26 03:59:35;;;;;;;9.40;9.10;;;3.20;99.90;;;;;;6290622;22;20205;-82
2022/03/26 04:02:05;;;;;;;9.30;9.00;;;3.10;99.90;;;;;;6290067;22;20209;-82
2022/03/26 04:04:33;;;;;;;9.50;9.20;;;3.10;99.90;;;;;;6295430;22;20186;-81
2022/03/26 04:07:00;;;;;;;9.40;9.10;;;3.10;99.90;;;;;;6310386;22;20223;-83
2022/03/26 04:09:28;;;;;;;9.80;9.50;;;3.00;99.90;;;;;;6295796;22;20201;-81
2022/03/26 04:11:56;;;;;;;9.50;9.20;;;3.00;99.90;;;;;;6289569;22;20197;-82
2022/03/26 04:14:24;;;;;;;9.50;9.20;;;2.90;99.90;;;;;;6289345;22;20200;-82
2022/03/26 04:16:51;;;;;;;9.70;9.40;;;2.90;99.90;;;;;;6289317;22;20267;-82
2022/03/26 04:19:21;;;;;;;9.90;9.60;;;2.90;99.90;;;;;;6288327;22;20273;-82
2022/03/26 04:21:49;;;;;;;9.70;9.40;;;2.90;99.90;;;;;;6287640;22;20199;-83
2022/03/26 04:24:17;;;;;;;9.33;9.03;;;2.90;99.90;;;;;;6288987;22;20202;-82
2022/03/26 04:26:45;;;;;;;9.50;9.20;;;2.80;99.90;;;;;;6288705;22;20193;-83
2022/03/26 04:29:12;;;;;;;9.47;9.17;;;2.80;99.90;;;;;;6288756;22;20190;-82
2022/03/26 04:31:43;;;;;;;9.80;9.50;;;2.80;99.90;;;;;;6289470;22;20204;-83
2022/03/26 04:34:10;;;;;;;9.80;9.50;;;2.80;99.90;;;;;;6288759;22;20193;-83
2022/03/26 04:36:40;;;;;;;9.47;9.17;;;2.80;99.90;;;;;;6288253;22;20205;-83
2022/03/26 04:39:08;;;;;;;9.40;9.10;;;2.70;99.90;;;;;;6288950;22;20197;-83
2022/03/26 04:41:36;;;;;;;9.67;9.37;;;2.70;99.90;;;;;;6289259;22;20197;-83
2022/03/26 04:44:04;;;;;;;9.77;9.47;;;2.70;99.90;;;;;;6289369;22;20194;-83
2022/03/26 04:46:32;;;;;;;9.70;9.40;;;2.70;99.90;;;;;;6291062;22;20264;-83
2022/03/26 04:49:00;;;;;;;10.00;9.70;;;2.70;99.90;;;;;;6291718;22;20204;-83
2022/03/26 04:51:28;;;;;;;9.90;9.60;;;2.70;99.90;;;;;;6293543;22;20208;-83
2022/03/26 04:53:57;;;;;;;10.00;9.70;;;2.70;99.90;;;;;;6294704;22;20190;-83
2022/03/26 04:56:25;;;;;;;10.20;9.90;;;2.70;99.90;;;;;;6294473;22;20222;-83
2022/03/26 04:58:53;;;;;;;10.00;9.70;;;2.70;99.90;;;;;;6292929;22;20201;-83
2022/03/26 05:01:23;;;;;;;10.10;9.80;;;2.70;99.90;;;;;;6292764;22;20197;-83
2022/03/26 05:03:51;;;;;;;9.70;9.40;;;2.60;99.90;;;;;;6291436;22;20193;-82
2022/03/26 05:06:19;;;;;;;9.90;9.60;;;2.60;99.90;;;;;;6291766;22;20205;-83
2022/03/26 05:08:48;;;;;;;10.00;9.70;;;2.60;99.90;;;;;;6291734;22;20269;-82
2022/03/26 05:11:19;;;;;;;9.80;9.50;;;2.60;99.90;;;;;;6293114;22;20224;-83
2022/03/26 05:13:46;;;;;;;9.80;9.50;;;2.60;99.90;;;;;;6296090;22;20202;-83
2022/03/26 05:16:14;;;;;;;9.93;9.63;;;2.60;99.90;;;;;;6309124;22;20198;-82
2022/03/26 05:18:42;;;;;;;10.00;9.70;;;2.60;99.90;;;;;;6310318;22;20194;-83
2022/03/26 05:21:10;;;;;;;9.67;9.37;;;2.50;99.90;;;;;;6311002;22;20182;-82
2022/03/26 05:23:40;;;;;;;10.20;9.90;;;2.50;99.90;;;;;;6305795;22;20193;-82
2022/03/26 05:26:08;;;;;;;9.60;9.30;;;2.40;99.90;;;;;;6301046;22;20193;-83
2022/03/26 05:28:37;;;;;;;9.70;9.40;;;2.40;99.90;;;;;;6295639;22;20645;-83
2022/03/26 05:31:07;;;;;;;9.93;9.63;;;2.40;99.90;;;;;;6293244;22;20208;-83
2022/03/26 05:33:34;;;;;;;10.03;9.73;;;2.40;99.90;;;;;;6291512;22;20208;-83
2022/03/26 05:36:02;;;;;;;10.00;9.70;;;2.30;99.90;;;;;;6293113;22;20190;-83
2022/03/26 05:38:33;;;;;;;10.10;9.80;;;2.30;99.90;;;;;;6291526;22;20208;-83
2022/03/26 05:41:01;;;;;;;9.90;9.60;;;2.30;99.90;;;;;;6292081;22;20194;-83
2022/03/26 05:43:29;;;;;;;10.00;9.70;;;2.20;99.90;;;;;;6292241;22;20216;-83
2022/03/26 05:45:58;;;;;;;10.23;9.93;;;2.20;99.90;;;;;;6292059;22;20209;-82
2022/03/26 05:48:26;;;;;;;10.17;9.87;;;2.30;99.90;;;;;;6291708;22;20186;-82
2022/03/26 05:50:54;;;;;;;10.00;9.70;;;2.30;99.90;;;;;;6291292;22;20212;-83
2022/03/26 05:53:21;;;;;;;10.10;9.80;;;2.30;99.90;;;;;;6290352;22;20202;-83
2022/03/26 05:55:49;;;;;;;10.07;9.77;;;2.30;99.90;;;;;;6290945;22;20189;-83
2022/03/26 05:58:17;;;;;;;9.90;9.60;;;2.30;99.90;;;;;;6291624;22;20220;-83
2022/03/26 06:00:45;;;;;;;10.10;9.80;;;2.40;99.90;;;;;;6291087;22;20201;-83
2022/03/26 06:03:19;;;;;;;10.00;9.70;;;2.50;99.90;;;;;;6291394;22;20284;-82
2022/03/26 06:05:47;;;;;;;10.00;9.70;;;2.60;99.90;;;;;;6291843;22;20231;-82
2022/03/26 06:08:18;;;;;;;10.07;9.77;;;2.60;99.90;;;;;;6291235;22;20208;-83
2022/03/26 06:10:46;;;;;;;9.67;9.37;;;2.70;99.90;;;;;;6291867;22;20204;-82
2022/03/26 06:13:14;;;;;;;9.67;9.37;;;2.70;99.90;;;;;;6292272;22;20263;-83
2022/03/26 06:15:45;;;;;;;9.53;9.23;;;2.80;99.90;;;;;;6294347;22;20190;-83
2022/03/26 06:18:15;;;;;;;9.63;9.33;;;2.90;99.90;;;;;;6293013;22;20292;-83
2022/03/26 06:20:43;;;;;;;9.40;9.10;;;2.90;99.90;;;;;;6293111;22;20201;-83
2022/03/26 06:23:11;;;;;;;9.53;9.23;;;3.10;99.90;;;;;;6298657;22;20193;-82
2022/03/26 06:25:39;;;;;;;9.67;9.37;;;3.20;99.90;;;;;;6309292;22;20186;-83
2022/03/26 06:28:08;;;;;;;9.60;9.30;;;3.30;99.90;;;;;;6289805;22;20240;-83
2022/03/26 06:30:35;;;;;;;9.80;9.50;;;3.40;99.90;;;;;;6291050;22;20201;-83
2022/03/26 06:33:29;;;;;;;9.80;9.50;;;3.50;99.90;;;;;;6272825;22;20191;-90
2022/03/26 06:36:07;;;;;;;9.80;9.50;;;3.70;99.90;;;;;;6249500;22;20393;-90
2022/03/26 06:38:49;;;;;;;9.70;9.40;;;3.80;99.90;;;;;;6249038;22;20258;-91
2022/03/26 06:41:49;;;;;;;10.00;9.70;;;4.00;99.90;;;;;;6248823;22;20257;-90
2022/03/26 06:44:59;;;;;;;9.90;9.60;;;4.10;99.90;;;;;;6244729;22;20206;-88
2022/03/26 06:47:44;;;;;;;9.87;9.57;;;4.20;99.90;;;;;;6230663;23;20221;-89
2022/03/26 06:50:54;;;;;;;10.10;9.80;;;4.40;99.90;;;;;;6226281;23;20199;-90
2022/03/26 06:53:41;;;;;;;10.30;10.00;;;4.50;99.90;;;;;;6226352;22;20624;-89
2022/03/26 06:56:31;;;;;;;10.17;9.87;;;4.70;99.90;;;;;;6227935;23;20257;-90
2022/03/26 06:59:19;;;;;;;10.10;9.80;;;4.80;99.90;;;;;;6226054;23;20314;-90
2022/03/26 07:02:29;;;;;;;10.20;9.90;;;5.10;99.90;;;;;;6226174;23;20527;-90
2022/03/26 07:05:15;;;;;;;10.37;10.07;;;5.30;99.90;;;;;;6225573;23;20191;-89
2022/03/26 07:08:06;;;;;;;10.30;10.00;;;5.60;99.90;;;;;;6228153;23;20210;-90
2022/03/26 07:10:46;;;;;;;10.40;10.10;;;5.70;99.90;;;;;;6224744;23;20195;-89
2022/03/26 07:13:20;;;;;;;10.47;10.17;;;5.80;99.90;;;;;;6226154;22;20277;-90
2022/03/26 07:18:45;;;;;;;10.33;10.03;;;6.10;99.90;;;;;;6222220;23;20210;-90
2022/03/26 07:21:35;;;;;;;10.50;10.20;;;6.20;99.90;;;;;;6226919;23;20278;-90
2022/03/26 07:27:24;;;;;;;10.17;9.87;;;6.40;99.90;;;;;;6219526;23;21067;-89
2022/03/26 07:33:24;;;;;;;9.93;9.63;;;6.70;99.90;;;;;;6237433;22;20209;-90
2022/03/26 07:39:42;;;;;;;10.17;9.87;;;7.00;99.90;;;;;;6226089;23;20290;-89
2022/03/26 07:42:47;;;;;;;10.20;9.90;;;7.30;99.90;;;;;;6225356;23;20195;-88
2022/03/26 07:45:27;;;;;;;10.20;9.90;;;7.50;99.90;;;;;;6226799;23;20214;-89
2022/03/26 07:48:12;;;;;;;10.23;9.93;;;7.60;99.90;;;;;;6228438;23;20195;-89
2022/03/26 07:50:56;;;;;;;10.40;10.10;;;7.80;99.90;;;;;;6226403;23;20201;-89
2022/03/26 07:53:38;;;;;;;10.60;10.30;;;8.00;99.90;;;;;;6227273;22;20203;-89
2022/03/26 08:09:21;;;;;;;10.63;10.33;;;8.80;99.90;;;;;;6226280;22;20198;-89
2022/03/26 08:12:34;;;;;;;10.80;10.50;;;9.00;99.90;;;;;;6227598;22;20195;-90
2022/03/26 08:15:24;;;;;;;10.50;10.20;;;9.10;99.90;;;;;;6227661;23;20202;-90
2022/03/26 08:18:24;;;;;;;10.40;10.10;;;9.30;99.90;;;;;;6228972;23;20246;-91
2022/03/26 08:21:10;;;;;;;10.63;10.33;;;9.50;99.90;;;;;;6240701;22;20195;-90
2022/03/26 08:24:06;;;;;;;10.80;10.50;;;9.80;99.90;;;;;;6233414;22;20202;-89
2022/03/26 08:26:59;;;;;;;10.60;10.30;;;10.10;99.90;;;;;;6232181;23;20214;-90
2022/03/26 08:30:07;;;;;;;10.80;10.50;;;10.30;99.90;;;;;;6230749;23;20261;-91
2022/03/26 08:33:09;;;;;;;;;;;;;;;;;;;;;
2022/03/26 08:36:07;;;;;;;10.60;10.30;;;10.60;99.90;;;;;;6229091;23;20198;-90
2022/03/26 08:38:48;;;;;;;10.50;10.20;;;10.80;99.90;;;;;;6148151;23;20230;-89
2022/03/26 08:41:53;;;;;;;10.40;10.10;;;10.90;99.90;;;;;;6229794;23;20199;-90
2022/03/26 08:48:27;;;;;;;10.57;10.27;;;11.30;99.90;;;;;;6177191;23;20203;-91
2022/03/26 09:03:24;;;;;;;10.47;10.17;;;12.70;99.90;;;;;;6219917;22;20776;-90
2022/03/26 09:06:06;;;;;;;10.50;10.20;;;12.80;99.90;;;;;;6224527;23;20238;-89
2022/03/26 09:08:38;;;;;;;10.40;10.10;;;12.90;99.90;;;;;;6224720;23;20751;-89
2022/03/26 09:11:13;;;;;;;10.70;10.40;;;13.10;99.90;;;;;;6224548;23;20273;-90
2022/03/26 09:13:49;;;;;;;10.67;10.37;;;13.40;99.90;;;;;;6225662;22;20220;-90
2022/03/26 09:16:26;;;;;;;10.60;10.30;;;13.70;99.90;;;;;;6226927;23;20222;-89
2022/03/26 09:19:10;;;;;;;10.50;10.20;;;13.80;99.90;;;;;;6226099;23;20271;-89
2022/03/26 09:21:51;;;;;;;10.10;9.80;;;14.00;99.90;;;;;;6227917;23;20669;-89
2022/03/26 09:24:50;;;;;;;10.17;9.87;;;14.20;99.90;;;;;;6226076;22;20202;-89
2022/03/26 09:27:33;;;;;;;10.50;10.20;;;14.40;99.90;;;;;;6226596;23;20199;-90
2022/03/26 09:30:30;;;;;;;10.33;10.03;;;14.80;99.90;;;;;;6227732;23;20191;-90
2022/03/26 09:33:18;;;;;;;10.38;10.07;;;14.90;99.90;;;;;;6228888;22;20276;-90
2022/03/26 09:35:57;;;;;;;10.60;10.30;;;14.90;99.90;;;;;;6228385;23;20195;-90
2022/03/26 09:39:01;;;;;;;10.45;10.15;;;15.10;99.90;;;;;;6228039;23;20246;-90
2022/03/26 09:41:43;;;;;;;10.30;10.00;;;15.30;99.90;;;;;;6140437;23;20246;-91
2022/03/26 09:44:44;;;;;;;10.50;10.20;;;15.30;99.90;;;;;;6249296;22;20201;-90
2022/03/26 09:50:25;;;;;;;10.48;10.18;;;15.60;99.90;;;;;;6246847;22;20183;-90
2022/03/26 09:53:37;;;;;;;10.48;10.18;;;15.80;99.90;;;;;;6247272;22;20199;-90
2022/03/26 09:56:34;;;;;;;10.60;10.30;;;15.90;99.90;;;;;;6235323;23;20203;-90
2022/03/26 09:59:10;;;;;;;10.65;10.35;;;16.00;99.90;;;;;;6228999;23;20195;-90
2022/03/26 10:01:54;;;;;;;10.30;10.00;;;16.30;99.90;;;;;;6225959;23;20242;-89
2022/03/26 10:04:47;;;;;;;10.50;10.20;;;16.50;99.90;;;;;;6225692;22;20261;-89
2022/03/26 10:13:57;;;;;;;10.73;10.43;;;17.20;99.90;;;;;;6222394;22;20333;-90
2022/03/26 10:17:34;;;;;;;10.65;10.35;;;17.50;99.90;;;;;;6211469;23;20206;-90
2022/03/26 10:20:26;;;;;;;10.68;10.38;;;17.60;99.90;;;;;;6224338;23;21043;-90
2022/03/26 10:40:23;;;;;;;10.10;9.80;;;17.80;99.90;;;;;;5756168;22;15187061;-90
2022/03/26 10:43:16;;;;;;;9.88;9.57;;;18.90;99.90;;;;;;6414534;22;20199;-90
2022/03/26 10:46:28;;;;;;;10.20;9.90;;;19.20;99.90;;;;;;6390028;22;20195;-90
2022/03/26 11:03:27;;;;;;;10.20;9.90;;;19.80;99.90;;;;;;6138205;22;20208;-90
2022/03/26 11:12:58;;;;;;;10.30;10.00;;;20.30;99.70;;;;;;6400892;22;20195;-89
2022/03/26 11:23:06;;;;;;;10.65;10.35;;;20.60;97.90;;;;;;6412826;22;20161;-90
2022/03/26 11:26:11;;;;;;;10.35;10.05;;;20.50;95.60;;;;;;6411998;22;20231;-90
2022/03/26 11:29:30;;;;;;;10.80;10.50;;;20.50;95.70;;;;;;6362540;22;20205;-90
2022/03/26 11:32:46;;;;;;;10.68;10.38;;;21.00;95.60;;;;;;6380380;22;20210;-90
2022/03/26 11:35:35;;;;;;;10.60;10.30;;;21.10;95.30;;;;;;6386663;22;20253;-90
2022/03/26 11:41:22;;;;;;;10.48;10.18;;;21.70;94.70;;;;;;6362858;22;20199;-90
2022/03/26 11:50:48;;;;;;;10.80;10.50;;;22.00;93.60;;;;;;6282566;22;20189;-89
2022/03/26 12:10:17;;;;;;;10.38;10.07;;;22.90;91.60;;;;;;6285815;22;20186;-87
2022/03/26 12:13:14;;;;;;;10.88;10.57;;;23.60;90.20;;;;;;6290731;22;20192;-88
2022/03/26 12:16:32;;;;;;;10.20;9.90;;;23.60;87.40;;;;;;6316545;22;20189;-88
2022/03/26 12:19:13;;;;;;;10.38;10.07;;;23.40;87.90;;;;;;6313711;22;20201;-88
2022/03/26 12:22:48;;;;;;;10.15;9.85;;;23.60;85.80;;;;;;6315994;22;20191;-88
2022/03/26 12:34:31;;;;;;;10.27;9.98;;;23.20;82.70;;;;;;6334902;22;20207;-83
2022/03/26 12:37:02;;;;;;;10.20;9.90;;;23.70;83.00;;;;;;6352490;22;20199;-83
2022/03/26 12:39:31;;;;;;;10.25;9.95;;;24.10;83.60;;;;;;6354223;22;20189;-83
2022/03/26 12:41:59;;;;;;;10.30;10.00;;;24.40;81.50;;;;;;6353086;22;20204;-83
2022/03/26 12:44:27;;;;;;;10.30;10.00;;;24.30;80.20;;;;;;6352459;22;20211;-83
2022/03/26 12:46:58;;;;;;;10.25;9.95;;;24.50;79.60;;;;;;6355141;22;20275;-82
2022/03/26 12:49:26;;;;;;;10.50;10.20;;;24.10;77.80;;;;;;6355469;22;20188;-83
2022/03/26 12:51:55;;;;;;;10.30;10.00;;;23.30;80.80;;;;;;6354906;22;20192;-84
2022/03/26 12:54:25;;;;;;;10.25;9.95;;;23.60;81.80;;;;;;6356115;22;20226;-83
2022/03/26 12:56:53;;;;;;;10.43;10.13;;;23.40;81.60;;;;;;6355551;22;20199;-83
2022/03/26 12:59:20;;;;;;;10.30;10.00;;;23.80;80.60;;;;;;6368248;22;20223;-83
2022/03/26 13:01:56;;;;;;;10.50;10.20;;;23.90;79.40;;;;;;6371770;22;20185;-82
2022/03/26 13:04:24;;;;;;;10.25;9.95;;;23.90;80.40;;;;;;6369338;22;20195;-83
2022/03/26 13:06:55;;;;;;;10.27;9.98;;;24.20;78.80;;;;;;6356956;22;20200;-83
2022/03/26 13:09:31;;;;;;;10.35;10.05;;;24.50;76.90;;;;;;6356702;22;20226;-84
2022/03/26 13:11:59;;;;;;;10.30;10.00;;;24.70;76.30;;;;;;6357081;22;20192;-84
2022/03/26 13:14:27;;;;;;;10.30;10.00;;;25.00;75.80;;;;;;6357802;22;20196;-85
2022/03/26 13:16:55;;;;;;;10.20;9.90;;;24.30;77.10;;;;;;6360688;22;20176;-83
2022/03/26 13:19:22;;;;;;;10.35;10.05;;;24.20;79.60;;;;;;6367982;22;20198;-84
2022/03/26 13:21:52;;;;;;;10.30;10.00;;;24.70;78.40;;;;;;6361392;22;20196;-84
2022/03/26 13:24:21;;;;;;;10.60;10.30;;;24.50;79.10;;;;;;6352774;22;21126;-84
2022/03/26 13:26:52;;;;;;;10.50;10.20;;;24.80;81.60;;;;;;6352478;22;20219;-84
2022/03/26 13:29:22;;;;;;;10.40;10.10;;;25.00;80.10;;;;;;6352771;22;20215;-84
2022/03/26 13:31:53;;;;;;;10.20;9.90;;;24.40;81.30;;;;;;6353258;22;20194;-84
2022/03/26 13:34:27;;;;;;;10.10;9.80;;;24.60;81.90;;;;;;6356946;22;20204;-84
2022/03/26 13:36:55;;;;;;;9.90;9.60;;;25.00;82.00;;;;;;6355554;22;20200;-84
2022/03/26 13:39:31;;;;;;;10.32;10.02;;;25.00;80.70;;;;;;6355223;22;20196;-84
2022/03/26 13:42:09;;;;;;;10.10;9.80;;;25.30;79.40;;;;;;6355330;22;20198;-84
2022/03/26 13:44:40;;;;;;;10.20;9.90;;;25.60;79.60;;;;;;6357323;22;20208;-84
2022/03/26 13:47:08;;;;;;;10.35;10.05;;;25.30;79.50;;;;;;6358487;22;20188;-84
2022/03/26 13:49:36;;;;;;;10.40;10.10;;;25.20;80.50;;;;;;6361437;22;20218;-83
2022/03/26 13:52:24;;;;;;;10.40;10.10;;;25.20;79.70;;;;;;6359202;22;20198;-84
2022/03/26 13:54:52;;;;;;;10.65;10.35;;;24.90;79.20;;;;;;6358338;22;20207;-84
2022/03/26 13:57:31;;;;;;;10.30;10.00;;;24.20;79.00;;;;;;6359623;22;20206;-83
2022/03/26 14:00:06;;;;;;;10.60;10.30;;;23.50;80.60;;;;;;6360049;22;20270;-83
2022/03/26 14:02:37;;;;;;;10.30;10.00;;;23.60;80.20;;;;;;6353640;22;20257;-83
2022/03/26 14:05:17;;;;;;;10.15;9.85;;;24.00;80.10;;;;;;6355020;22;20208;-84
2022/03/26 14:07:45;;;;;;;10.05;9.75;;;24.10;80.30;;;;;;6357827;22;20196;-83
2022/03/26 14:10:13;;;;;;;10.10;9.80;;;24.40;79.10;;;;;;6371278;22;20263;-83
2022/03/26 14:12:42;;;;;;;10.38;10.07;;;24.60;78.90;;;;;;6371059;22;20189;-82
2022/03/26 14:15:11;;;;;;;10.48;10.18;;;24.60;78.00;;;;;;6358649;22;20199;-84
2022/03/26 14:17:39;;;;;;;10.10;9.80;;;24.50;77.80;;;;;;6355438;22;20255;-84
2022/03/26 14:20:08;;;;;;;10.32;10.02;;;24.40;77.10;;;;;;6356900;22;20191;-84
2022/03/26 14:22:35;;;;;;;10.10;9.80;;;24.50;77.90;;;;;;6356351;22;20195;-84
2022/03/26 14:25:16;;;;;;;10.40;10.10;;;24.70;77.70;;;;;;6355153;22;20215;-83
2022/03/26 14:27:47;;;;;;;10.30;10.00;;;24.80;77.50;;;;;;6355097;22;20191;-84
2022/03/26 14:30:18;;;;;;;10.65;10.35;;;25.00;77.60;;;;;;6355157;22;20218;-83
2022/03/26 14:32:45;;;;;;;10.40;10.10;;;25.60;77.60;;;;;;6353247;22;20259;-84
2022/03/26 14:35:14;;;;;;;10.30;10.00;;;26.10;76.50;;;;;;6353782;22;20242;-83
2022/03/26 14:37:42;;;;;;;10.23;9.93;;;26.10;75.60;;;;;;6354104;22;20196;-83
2022/03/26 14:40:11;;;;;;;10.20;9.90;;;26.00;72.90;;;;;;6354335;22;20192;-84
2022/03/26 14:42:43;;;;;;;10.32;10.02;;;25.90;72.90;;;;;;6353410;22;20207;-83
2022/03/26 14:45:13;;;;;;;10.23;9.93;;;25.70;72.90;;;;;;6354244;22;20219;-84
2022/03/26 14:47:41;;;;;;;10.45;10.15;;;25.70;73.20;;;;;;6354496;22;20268;-83
2022/03/26 14:50:11;;;;;;;10.10;9.80;;;25.60;72.50;;;;;;6354689;22;20196;-84
2022/03/26 14:52:40;;;;;;;10.40;10.10;;;25.70;72.80;;;;;;6354056;22;20196;-83
2022/03/26 14:55:12;;;;;;;10.30;10.00;;;25.50;70.60;;;;;;6353882;22;20192;-84
2022/03/26 14:57:41;;;;;;;10.25;9.95;;;25.60;71.20;;;;;;6354241;22;20200;-84
2022/03/26 15:00:14;;;;;;;10.30;10.00;;;25.70;70.20;;;;;;6353874;22;20188;-84
2022/03/26 15:02:42;;;;;;;10.02;9.73;;;25.80;71.50;;;;;;6353919;22;20283;-84
2022/03/26 15:05:10;;;;;;;10.20;9.90;;;25.80;71.80;;;;;;6354587;22;20222;-84
2022/03/26 15:07:39;;;;;;;10.32;10.02;;;25.80;72.70;;;;;;6353723;22;20196;-84
2022/03/26 15:10:08;;;;;;;10.63;10.32;;;25.30;71.30;;;;;;6353881;22;20203;-84
2022/03/26 15:12:37;;;;;;;10.35;10.05;;;25.30;71.50;;;;;;6353799;22;20189;-84
2022/03/26 15:15:09;;;;;;;10.32;10.02;;;25.80;72.70;;;;;;6354049;22;20207;-84
2022/03/26 15:17:41;;;;;;;10.40;10.10;;;25.40;71.50;;;;;;6355836;22;20200;-84
2022/03/26 15:20:10;;;;;;;10.40;10.10;;;25.20;70.20;;;;;;6356069;22;20184;-84
2022/03/26 15:22:40;;;;;;;10.10;9.80;;;25.10;70.30;;;;;;6355731;22;20196;-84
2022/03/26 15:25:10;;;;;;;10.43;10.13;;;25.20;70.00;;;;;;6363916;22;20191;-84
2022/03/26 15:27:38;;;;;;;10.35;10.05;;;25.10;70.00;;;;;;6373090;22;20196;-83
2022/03/26 15:30:08;;;;;;;10.40;10.10;;;24.60;70.30;;;;;;6363233;22;20646;-83
2022/03/26 15:32:41;;;;;;;10.38;10.07;;;24.50;70.60;;;;;;6353441;22;20287;-83
2022/03/26 15:35:09;;;;;;;10.48;10.18;;;24.80;70.90;;;;;;6351818;22;20196;-83
2022/03/26 15:37:38;;;;;;;10.65;10.35;;;25.20;70.20;;;;;;6359874;22;20215;-84
2022/03/26 15:40:08;;;;;;;10.70;10.40;;;25.30;70.10;;;;;;6364828;22;20223;-83
2022/03/26 15:42:39;;;;;;;10.60;10.30;;;25.70;69.70;;;;;;6359698;22;20239;-84
2022/03/26 15:45:15;;;;;;;10.43;10.13;;;25.40;68.80;;;;;;6364102;22;20188;-84
2022/03/26 15:47:50;;;;;;;10.38;10.07;;;25.50;69.20;;;;;;6373546;22;20191;-84
2022/03/26 15:50:18;;;;;;;10.60;10.30;;;25.50;68.70;;;;;;6371029;22;20218;-84
2022/03/26 15:52:47;;;;;;;10.75;10.45;;;25.70;68.80;;;;;;6359918;22;20242;-84
2022/03/26 15:55:17;;;;;;;10.90;10.60;;;25.70;69.60;;;;;;6359818;22;20193;-84
2022/03/26 15:57:53;;;;;;;10.60;10.30;;;26.00;69.70;;;;;;6358916;22;20200;-84
2022/03/26 16:00:41;;;;;;;10.43;10.13;;;26.20;68.20;;;;;;6357271;22;20252;-85
2022/03/26 16:03:12;;;;;;;10.75;10.45;;;26.20;67.60;;;;;;6359942;22;20291;-84
2022/03/26 16:08:24;;;;;;;10.65;10.35;;;26.10;67.60;;;;;;6348691;22;20188;-85
2022/03/26 16:10:55;;;;;;;10.63;10.32;;;25.60;67.20;;;;;;6356290;22;20188;-85